createdAt,value
2023-01-18T00:00:32.785Z,9.01
2023-01-18T00:03:00.382Z,9.20
2023-01-18T00:05:27.860Z,9.11
2023-01-18T00:07:55.186Z,9.15
2023-01-18T00:10:22.844Z,9.01
2023-01-18T00:12:50.192Z,8.81
2023-01-18T00:15:17.796Z,8.93
2023-01-18T00:17:51.805Z,8.76
2023-01-18T00:20:21.181Z,8.81
2023-01-18T00:22:48.687Z,8.70
2023-01-18T00:25:15.975Z,9.09
2023-01-18T00:27:50.725Z,9.30
2023-01-18T00:30:20.852Z,9.15
2023-01-18T00:32:48.781Z,8.92
2023-01-18T00:35:16.331Z,9.12
2023-01-18T00:37:45.363Z,9.11
2023-01-18T00:40:12.733Z,9.26
2023-01-18T00:42:58.959Z,9.20
2023-01-18T00:45:26.566Z,9.42
2023-01-18T00:47:53.835Z,9.50
2023-01-18T00:50:22.569Z,9.49
2023-01-18T00:52:50.362Z,9.51
2023-01-18T00:55:17.910Z,9.55
2023-01-18T00:57:45.084Z,9.50
2023-01-18T01:00:15.563Z,9.47
2023-01-18T01:02:42.962Z,9.36
2023-01-18T01:05:37.979Z,9.58
2023-01-18T01:08:06.167Z,9.61
2023-01-18T01:10:34.476Z,9.74
2023-01-18T01:13:20.453Z,9.75
2023-01-18T01:16:06.490Z,9.74
2023-01-18T01:18:52.482Z,9.88
2023-01-18T01:21:38.260Z,9.77
2023-01-18T01:24:24.686Z,9.86
2023-01-18T01:26:52.199Z,9.88
2023-01-18T01:29:19.360Z,9.76
2023-01-18T01:31:46.607Z,9.84
2023-01-18T01:34:14.434Z,9.87
2023-01-18T01:36:41.567Z,9.78
2023-01-18T01:39:11.261Z,9.84
2023-01-18T01:41:38.505Z,9.90
2023-01-18T01:44:17.977Z,9.86
2023-01-18T01:46:49.174Z,9.92
2023-01-18T01:49:17.963Z,9.94
2023-01-18T01:51:51.965Z,9.90
2023-01-18T01:54:24.066Z,9.95
2023-01-18T01:56:52.516Z,9.95
2023-01-18T01:59:20.327Z,10.07
2023-01-18T02:01:47.954Z,10.07
2023-01-18T02:04:15.613Z,9.83
2023-01-18T02:06:42.875Z,9.84
2023-01-18T02:09:12.624Z,9.90
2023-01-18T02:11:40.068Z,9.97
2023-01-18T02:14:09.475Z,9.98
2023-01-18T02:17:05.292Z,9.87
2023-01-18T02:20:11.817Z,9.80
2023-01-18T02:23:01.283Z,9.80
2023-01-18T02:25:31.515Z,9.84
2023-01-18T02:28:18.634Z,9.81
2023-01-18T02:31:18.848Z,9.95
2023-01-18T02:34:07.086Z,9.86
2023-01-18T02:36:57.559Z,9.81
2023-01-18T02:39:32.075Z,9.82
2023-01-18T02:42:27.178Z,9.80
2023-01-18T02:45:13.113Z,9.81
2023-01-18T02:47:40.429Z,9.80
2023-01-18T02:50:09.292Z,9.76
2023-01-18T02:52:47.623Z,9.83
2023-01-18T02:55:40.352Z,9.82
2023-01-18T02:58:20.246Z,9.90
2023-01-18T03:00:50.451Z,9.92
2023-01-18T03:03:17.631Z,9.87
2023-01-18T03:05:44.880Z,9.85
2023-01-18T03:08:15.330Z,9.94
2023-01-18T03:10:53.262Z,9.87
2023-01-18T03:13:45.444Z,9.66
2023-01-18T03:16:21.786Z,9.70
2023-01-18T03:19:01.927Z,9.80
2023-01-18T03:21:42.183Z,9.66
2023-01-18T03:24:10.169Z,9.65
2023-01-18T03:26:43.088Z,9.59
2023-01-18T03:29:28.713Z,9.66
2023-01-18T03:32:18.152Z,9.77
2023-01-18T03:34:48.474Z,9.78
2023-01-18T03:37:26.464Z,9.78
2023-01-18T03:40:02.764Z,9.70
2023-01-18T03:42:45.720Z,9.78
2023-01-18T03:45:22.828Z,9.59
2023-01-18T03:47:51.280Z,9.71
2023-01-18T03:50:18.510Z,9.63
2023-01-18T03:52:47.364Z,9.75
2023-01-18T03:55:19.417Z,9.78
2023-01-18T03:57:51.659Z,9.82
2023-01-18T04:00:19.611Z,9.87
2023-01-18T04:02:48.209Z,9.91
2023-01-18T04:05:15.627Z,10.01
2023-01-18T04:07:43.272Z,10.08
2023-01-18T04:10:11.359Z,10.18
2023-01-18T04:12:38.559Z,10.06
2023-01-18T04:15:06.672Z,10.01
2023-01-18T04:17:33.949Z,10.04
2023-01-18T04:20:01.234Z,10.08
2023-01-18T04:22:28.398Z,9.96
2023-01-18T04:24:55.913Z,9.91
2023-01-18T04:27:25.303Z,9.86
2023-01-18T04:29:52.948Z,9.87
2023-01-18T04:32:20.758Z,9.80
2023-01-18T04:34:48.310Z,9.82
2023-01-18T04:37:15.639Z,9.94
2023-01-18T04:39:42.919Z,9.99
2023-01-18T04:42:10.428Z,9.94
2023-01-18T04:44:37.743Z,9.84
2023-01-18T04:47:04.982Z,9.83
2023-01-18T04:49:32.444Z,9.82
2023-01-18T04:51:59.649Z,9.73
2023-01-18T04:54:26.985Z,9.72
2023-01-18T04:56:54.551Z,9.59
2023-01-18T04:59:21.946Z,9.46
2023-01-18T05:01:49.471Z,9.32
2023-01-18T05:04:17.032Z,9.50
2023-01-18T05:06:44.850Z,9.55
2023-01-18T05:09:12.727Z,9.43
2023-01-18T05:11:40.055Z,9.30
2023-01-18T05:14:07.252Z,9.24
2023-01-18T05:16:34.629Z,9.28
2023-01-18T05:19:01.963Z,9.05
2023-01-18T05:21:29.249Z,9.15
2023-01-18T05:23:56.924Z,9.02
2023-01-18T05:26:24.567Z,8.94
2023-01-18T05:28:56.740Z,8.92
2023-01-18T05:31:24.132Z,8.98
2023-01-18T05:33:51.372Z,8.85
2023-01-18T05:36:18.800Z,8.77
2023-01-18T05:38:46.867Z,8.60
2023-01-18T05:41:14.052Z,8.65
2023-01-18T05:43:41.434Z,8.93
2023-01-18T05:46:08.774Z,9.14
2023-01-18T05:48:36.179Z,9.05
2023-01-18T05:51:09.029Z,9.14
2023-01-18T05:53:36.178Z,8.85
2023-01-18T05:56:05.543Z,8.68
2023-01-18T05:58:32.725Z,8.58
2023-01-18T06:01:00.221Z,8.45
2023-01-18T06:03:27.885Z,8.41
2023-01-18T06:05:55.073Z,8.40
2023-01-18T06:08:22.347Z,8.46
2023-01-18T06:10:54.585Z,8.47
2023-01-18T06:13:25.615Z,8.58
2023-01-18T06:15:54.955Z,8.91
2023-01-18T06:18:22.664Z,9.02
2023-01-18T06:20:49.967Z,8.97
2023-01-18T06:23:17.153Z,9.02
2023-01-18T06:25:44.576Z,8.88
2023-01-18T06:28:11.842Z,8.82
2023-01-18T06:30:39.150Z,8.79
2023-01-18T06:33:07.560Z,8.86
2023-01-18T06:35:34.910Z,8.99
2023-01-18T06:38:03.482Z,8.96
2023-01-18T06:40:31.141Z,9.10
2023-01-18T06:42:58.872Z,9.00
2023-01-18T06:45:26.433Z,9.03
2023-01-18T06:47:53.782Z,9.32
2023-01-18T06:50:21.271Z,9.49
2023-01-18T06:52:48.588Z,9.29
2023-01-18T06:55:15.940Z,9.23
2023-01-18T06:57:43.219Z,9.21
2023-01-18T07:00:11.380Z,9.12
2023-01-18T07:02:38.632Z,8.99
2023-01-18T07:05:06.251Z,9.07
2023-01-18T07:07:34.281Z,9.17
2023-01-18T07:10:01.509Z,9.35
2023-01-18T07:12:28.762Z,9.15
2023-01-18T07:14:55.973Z,9.12
2023-01-18T07:17:23.237Z,9.12
2023-01-18T07:19:50.620Z,9.19
2023-01-18T07:22:17.782Z,9.24
2023-01-18T07:24:45.883Z,9.33
2023-01-18T07:27:13.353Z,9.25
2023-01-18T07:29:40.850Z,9.34
2023-01-18T07:32:08.150Z,9.59
2023-01-18T07:34:35.392Z,9.56
2023-01-18T07:37:02.619Z,9.58
2023-01-18T07:39:29.875Z,9.55
2023-01-18T07:41:57.116Z,9.74
2023-01-18T07:44:24.401Z,9.57
2023-01-18T07:46:51.611Z,9.56
2023-01-18T07:49:18.819Z,9.77
2023-01-18T07:51:46.093Z,9.83
2023-01-18T07:54:13.387Z,9.70
2023-01-18T07:56:40.595Z,9.81
2023-01-18T07:59:08.598Z,9.72
2023-01-18T08:01:36.010Z,9.83
2023-01-18T08:04:03.518Z,10.00
2023-01-18T08:06:30.908Z,9.83
2023-01-18T08:08:58.221Z,9.91
2023-01-18T08:11:25.688Z,9.86
2023-01-18T08:13:53.146Z,9.78
2023-01-18T08:16:20.567Z,9.65
2023-01-18T08:18:51.015Z,9.64
2023-01-18T08:21:18.314Z,9.70
2023-01-18T08:23:45.631Z,9.55
2023-01-18T08:26:15.181Z,9.75
2023-01-18T08:28:42.442Z,9.78
2023-01-18T08:31:12.507Z,9.59
2023-01-18T08:33:45.629Z,9.52
2023-01-18T08:36:14.383Z,9.40
2023-01-18T08:38:41.643Z,9.44
2023-01-18T08:41:08.884Z,9.52
2023-01-18T08:43:36.508Z,9.45
2023-01-18T08:46:03.754Z,9.38
2023-01-18T08:48:31.007Z,9.34
2023-01-18T08:51:02.707Z,9.47
2023-01-18T08:53:30.908Z,9.59
2023-01-18T08:55:58.499Z,9.55
2023-01-18T08:58:25.831Z,9.65
2023-01-18T09:00:54.229Z,9.82
2023-01-18T09:03:22.087Z,9.96
2023-01-18T09:05:49.661Z,9.98
2023-01-18T09:08:17.796Z,9.87
2023-01-18T09:10:45.237Z,9.73
2023-01-18T09:13:12.510Z,9.81
2023-01-18T09:15:39.818Z,9.74
2023-01-18T09:18:08.380Z,9.63
2023-01-18T09:20:36.467Z,9.52
2023-01-18T09:23:07.316Z,9.54
2023-01-18T09:25:36.701Z,9.57
2023-01-18T09:28:04.689Z,9.79
2023-01-18T09:30:32.507Z,9.77
2023-01-18T09:33:01.387Z,9.60
2023-01-18T09:35:28.748Z,9.58
2023-01-18T09:37:56.215Z,9.54
2023-01-18T09:40:44.918Z,9.57
2023-01-18T09:43:40.064Z,9.54
2023-01-18T09:46:22.169Z,9.49
2023-01-18T09:48:59.916Z,9.61
2023-01-18T09:51:33.048Z,9.59
2023-01-18T09:54:40.140Z,9.39
2023-01-18T09:57:33.728Z,9.24
2023-01-18T10:00:01.734Z,9.47
2023-01-18T10:02:39.288Z,9.30
2023-01-18T10:05:12.426Z,9.31
2023-01-18T10:08:08.050Z,9.33
2023-01-18T10:10:40.677Z,9.09
2023-01-18T10:13:17.251Z,9.30
2023-01-18T10:15:44.740Z,9.23
2023-01-18T10:18:12.024Z,9.25
2023-01-18T10:20:43.710Z,9.23
2023-01-18T10:23:22.245Z,9.25
2023-01-18T10:25:56.565Z,9.20
2023-01-18T10:28:47.913Z,9.36
2023-01-18T10:31:40.202Z,9.23
2023-01-18T10:34:26.658Z,9.12
2023-01-18T10:37:14.997Z,9.32
2023-01-18T10:39:51.449Z,9.22
2023-01-18T10:42:57.007Z,9.09
2023-01-18T10:45:26.588Z,9.16
2023-01-18T10:47:55.193Z,9.19
2023-01-18T10:50:40.237Z,9.39
2023-01-18T10:53:25.079Z,9.29
2023-01-18T10:56:00.454Z,9.54
2023-01-18T10:58:58.115Z,9.51
2023-01-18T11:01:55.403Z,9.33
2023-01-18T11:04:27.999Z,9.71
2023-01-18T11:06:57.050Z,9.57
2023-01-18T11:09:48.763Z,9.45
2023-01-18T11:12:34.333Z,9.44
2023-01-18T11:15:14.150Z,9.55
2023-01-18T11:17:58.176Z,9.69
2023-01-18T11:20:30.335Z,9.39
2023-01-18T11:23:03.528Z,9.45
2023-01-18T11:26:09.471Z,9.58
2023-01-18T11:28:39.852Z,9.47
2023-01-18T11:31:20.454Z,9.41
2023-01-18T11:33:57.685Z,9.83
2023-01-18T11:36:46.571Z,9.92
2023-01-18T11:39:25.050Z,9.71
2023-01-18T11:42:14.185Z,9.70
2023-01-18T11:45:19.250Z,9.85
2023-01-18T11:48:17.933Z,9.82
2023-01-18T11:50:54.354Z,9.87
2023-01-18T11:53:21.862Z,9.89
2023-01-18T11:56:06.596Z,10.01
2023-01-18T11:58:35.263Z,10.10
2023-01-18T12:01:09.085Z,10.09
2023-01-18T12:03:56.497Z,10.10
2023-01-18T12:06:27.530Z,9.95
2023-01-18T12:09:04.165Z,10.05
2023-01-18T12:11:37.558Z,10.18
2023-01-18T12:14:30.408Z,10.27
2023-01-18T12:17:35.135Z,10.33
2023-01-18T12:20:44.269Z,10.38
2023-01-18T12:23:42.688Z,10.18
2023-01-18T12:26:31.347Z,10.30
2023-01-18T12:29:01.719Z,10.28
2023-01-18T12:32:02.943Z,10.44
2023-01-18T12:34:33.249Z,10.54
2023-01-18T12:37:22.020Z,10.65
2023-01-18T12:39:58.791Z,10.49
2023-01-18T12:42:49.741Z,10.47
2023-01-18T12:45:28.120Z,10.49
2023-01-18T12:48:00.288Z,10.64
2023-01-18T12:50:29.911Z,10.53
2023-01-18T12:53:02.923Z,10.58
2023-01-18T12:55:31.837Z,10.62
2023-01-18T12:58:00.442Z,10.63
2023-01-18T13:00:35.642Z,10.63
2023-01-18T13:03:05.084Z,10.53
2023-01-18T13:05:35.667Z,10.63
2023-01-18T13:08:10.353Z,10.63
2023-01-18T13:10:37.988Z,10.55
2023-01-18T13:13:06.176Z,10.62
2023-01-18T13:15:38.975Z,10.58
2023-01-18T13:18:12.190Z,10.74
2023-01-18T13:20:54.453Z,10.72
2023-01-18T13:23:25.977Z,10.67
2023-01-18T13:26:17.793Z,10.61
2023-01-18T13:28:46.501Z,10.67
2023-01-18T13:31:13.796Z,10.76
2023-01-18T13:33:45.111Z,10.75
2023-01-18T13:36:14.631Z,10.66
2023-01-18T13:38:52.724Z,10.69
2023-01-18T13:41:25.188Z,10.64
2023-01-18T13:43:57.049Z,10.58
2023-01-18T13:46:25.390Z,10.57
2023-01-18T13:49:00.985Z,10.56
2023-01-18T13:51:37.307Z,10.40
2023-01-18T13:54:05.010Z,10.49
2023-01-18T13:56:33.558Z,10.44
2023-01-18T13:59:23.971Z,10.12
2023-01-18T14:01:51.578Z,9.74
2023-01-18T14:04:32.181Z,9.87
2023-01-18T14:07:01.294Z,9.87
2023-01-18T14:09:43.326Z,9.90
2023-01-18T14:12:11.689Z,9.85
2023-01-18T14:14:56.726Z,9.70
2023-01-18T14:17:25.502Z,9.74
2023-01-18T14:19:57.512Z,9.79
2023-01-18T14:22:37.202Z,9.85
2023-01-18T14:25:42.973Z,10.01
2023-01-18T14:28:13.668Z,9.87
2023-01-18T14:30:41.259Z,9.66
2023-01-18T14:33:11.808Z,9.40
2023-01-18T14:35:39.225Z,9.32
2023-01-18T14:38:17.518Z,9.45
2023-01-18T14:40:47.811Z,9.28
2023-01-18T14:43:28.327Z,9.41
2023-01-18T14:46:06.005Z,9.46
2023-01-18T14:48:34.987Z,9.32
2023-01-18T14:51:02.687Z,9.41
2023-01-18T14:53:34.648Z,8.97
2023-01-18T14:56:35.106Z,9.05
2023-01-18T14:59:12.079Z,9.21
2023-01-18T15:01:40.257Z,9.30
2023-01-18T15:04:19.747Z,9.38
2023-01-18T15:07:01.673Z,9.60
2023-01-18T15:09:34.811Z,9.29
2023-01-18T15:12:04.545Z,9.24
2023-01-18T15:14:52.093Z,9.12
2023-01-18T15:17:23.625Z,9.34
2023-01-18T15:19:53.461Z,8.84
2023-01-18T15:22:22.215Z,8.96
2023-01-18T15:24:49.865Z,8.95
2023-01-18T15:27:19.126Z,8.95
2023-01-18T15:29:48.062Z,8.78
2023-01-18T15:32:17.170Z,8.96
2023-01-18T15:34:45.539Z,8.71
2023-01-18T15:37:16.444Z,8.59
2023-01-18T15:40:02.029Z,8.82
2023-01-18T15:42:32.262Z,8.89
2023-01-18T15:44:59.687Z,8.81
2023-01-18T15:47:38.727Z,8.69
2023-01-18T15:50:15.700Z,8.53
2023-01-18T15:53:06.422Z,8.62
2023-01-18T15:55:41.227Z,8.60
2023-01-18T15:58:19.876Z,8.53
2023-01-18T16:01:00.504Z,8.51
2023-01-18T16:03:41.075Z,8.64
2023-01-18T16:06:17.286Z,8.31
2023-01-18T16:09:11.828Z,8.49
2023-01-18T16:11:40.079Z,8.32
2023-01-18T16:14:22.723Z,8.36
2023-01-18T16:16:50.133Z,8.42
2023-01-18T16:19:31.898Z,8.44
2023-01-18T16:22:01.075Z,8.40
2023-01-18T16:24:34.585Z,8.25
2023-01-18T16:27:15.833Z,8.25
2023-01-18T16:29:50.389Z,8.27
2023-01-18T16:32:29.323Z,8.37
2023-01-18T16:34:59.277Z,8.31
2023-01-18T16:37:26.831Z,8.35
2023-01-18T16:39:57.103Z,8.41
2023-01-18T16:42:33.309Z,8.44
2023-01-18T16:45:07.083Z,8.49
2023-01-18T16:47:35.376Z,8.42
2023-01-18T16:50:05.131Z,8.50
2023-01-18T16:52:32.385Z,8.19
2023-01-18T16:54:59.774Z,8.17
2023-01-18T16:57:30.219Z,8.16
2023-01-18T16:59:57.619Z,8.89
2023-01-18T17:02:25.342Z,12.74
2023-01-18T17:04:52.844Z,12.42
2023-01-18T17:07:20.212Z,12.57
2023-01-18T17:09:49.055Z,12.53
2023-01-18T17:12:16.887Z,12.66
2023-01-18T17:14:44.224Z,12.47
2023-01-18T17:17:11.522Z,12.66
2023-01-18T17:19:40.597Z,12.25
2023-01-18T17:22:07.875Z,11.96
2023-01-18T17:24:35.528Z,12.02
2023-01-18T17:27:03.027Z,12.21
2023-01-18T17:29:30.289Z,12.53
2023-01-18T17:31:57.945Z,12.22
2023-01-18T17:34:28.568Z,12.34
2023-01-18T17:37:00.203Z,12.61
2023-01-18T17:39:42.722Z,12.49
2023-01-18T17:42:22.284Z,12.37
2023-01-18T17:44:50.884Z,12.00
2023-01-18T17:47:18.129Z,11.85
2023-01-18T17:49:45.493Z,11.87
2023-01-18T17:52:12.732Z,12.14
2023-01-18T17:54:39.988Z,12.43
2023-01-18T17:57:07.141Z,12.10
2023-01-18T17:59:34.498Z,12.22
2023-01-18T18:02:01.800Z,12.14
2023-01-18T18:04:30.800Z,12.04
2023-01-18T18:06:58.750Z,12.14
2023-01-18T18:09:25.983Z,12.04
2023-01-18T18:11:53.296Z,11.80
2023-01-18T18:14:20.631Z,11.87
2023-01-18T18:16:48.053Z,11.87
2023-01-18T18:19:18.153Z,11.74
2023-01-18T18:21:46.197Z,12.07
2023-01-18T18:24:13.554Z,12.10
2023-01-18T18:26:41.188Z,11.74
2023-01-18T18:29:09.229Z,11.72
2023-01-18T18:31:38.783Z,11.74
2023-01-18T18:34:06.142Z,11.62
2023-01-18T18:36:33.433Z,11.68
2023-01-18T18:39:01.835Z,11.72
2023-01-18T18:41:29.175Z,11.66
2023-01-18T18:43:57.564Z,11.71
2023-01-18T18:46:24.938Z,11.54
2023-01-18T18:48:55.081Z,11.61
2023-01-18T18:51:22.835Z,11.76
2023-01-18T18:53:50.199Z,11.82
2023-01-18T18:56:17.532Z,11.83
2023-01-18T18:58:46.314Z,11.84
2023-01-18T19:01:25.175Z,11.86
2023-01-18T19:03:53.106Z,11.78
2023-01-18T19:06:21.198Z,11.96
2023-01-18T19:08:48.481Z,11.93
2023-01-18T19:11:15.897Z,11.65
2023-01-18T19:13:43.995Z,11.83
2023-01-18T19:16:11.734Z,11.86
2023-01-18T19:18:38.964Z,11.93
2023-01-18T19:21:06.737Z,12.10
2023-01-18T19:23:34.688Z,11.83
2023-01-18T19:26:02.193Z,11.60
2023-01-18T19:28:29.560Z,11.65
2023-01-18T19:31:07.544Z,11.40
2023-01-18T19:33:35.028Z,11.50
2023-01-18T19:36:13.463Z,11.59
2023-01-18T19:38:45.872Z,11.49
2023-01-18T19:41:14.531Z,11.65
2023-01-18T19:43:43.009Z,11.91
2023-01-18T19:46:15.437Z,11.34
2023-01-18T19:48:43.228Z,11.70
2023-01-18T19:51:21.210Z,11.97
2023-01-18T19:53:49.378Z,11.93
2023-01-18T19:56:16.695Z,12.02
2023-01-18T19:58:44.425Z,11.90
2023-01-18T20:01:34.171Z,11.66
2023-01-18T20:04:04.834Z,12.01
2023-01-18T20:06:32.127Z,12.04
2023-01-18T20:08:59.893Z,11.67
2023-01-18T20:11:27.109Z,11.78
2023-01-18T20:13:54.711Z,11.80
2023-01-18T20:16:22.409Z,11.75
2023-01-18T20:18:49.714Z,11.84
2023-01-18T20:21:18.590Z,11.68
2023-01-18T20:23:45.930Z,12.14
2023-01-18T20:26:14.499Z,11.78
2023-01-18T20:28:42.744Z,11.54
2023-01-18T20:31:10.468Z,12.29
2023-01-18T20:33:38.519Z,12.16
2023-01-18T20:36:07.077Z,11.97
2023-01-18T20:38:34.403Z,11.90
2023-01-18T20:41:01.765Z,11.69
2023-01-18T20:43:29.233Z,12.19
2023-01-18T20:46:04.189Z,12.16
2023-01-18T20:48:32.904Z,12.11
2023-01-18T20:51:00.834Z,11.73
2023-01-18T20:53:28.404Z,12.33
2023-01-18T20:55:55.895Z,12.07
2023-01-18T20:58:23.217Z,12.22
2023-01-18T21:00:53.738Z,12.08
2023-01-18T21:03:21.083Z,12.25
2023-01-18T21:05:48.394Z,12.33
2023-01-18T21:08:17.562Z,12.19
2023-01-18T21:10:44.940Z,12.40
2023-01-18T21:13:12.155Z,12.36
2023-01-18T21:15:41.895Z,12.44
2023-01-18T21:18:09.162Z,12.32
2023-01-18T21:20:36.439Z,12.22
2023-01-18T21:23:04.135Z,12.54
2023-01-18T21:25:31.405Z,12.44
2023-01-18T21:27:58.847Z,12.35
2023-01-18T21:30:26.408Z,12.28
2023-01-18T21:32:58.403Z,12.37
2023-01-18T21:35:30.044Z,12.11
2023-01-18T21:37:59.900Z,12.30
2023-01-18T21:40:29.298Z,12.00
2023-01-18T21:43:15.405Z,12.45
2023-01-18T21:45:55.327Z,12.57
2023-01-18T21:48:23.433Z,12.11
2023-01-18T21:51:09.342Z,12.16
2023-01-18T21:53:55.434Z,12.48
2023-01-18T21:56:24.007Z,12.54
2023-01-18T21:59:01.998Z,12.38
2023-01-18T22:01:39.192Z,12.59
2023-01-18T22:04:29.725Z,12.41
2023-01-18T22:06:59.603Z,12.91
2023-01-18T22:09:27.545Z,13.04
2023-01-18T22:11:56.499Z,12.94
2023-01-18T22:14:23.812Z,12.70
2023-01-18T22:16:51.012Z,13.20
2023-01-18T22:19:19.395Z,12.71
2023-01-18T22:21:47.023Z,12.82
2023-01-18T22:24:14.778Z,12.66
2023-01-18T22:26:42.475Z,13.05
2023-01-18T22:29:09.996Z,12.86
2023-01-18T22:31:37.612Z,12.98
2023-01-18T22:34:05.623Z,13.54
2023-01-18T22:36:33.487Z,13.09
2023-01-18T22:39:01.219Z,13.28
2023-01-18T22:41:28.844Z,13.40
2023-01-18T22:43:56.200Z,13.40
2023-01-18T22:46:24.185Z,13.34
2023-01-18T22:48:51.687Z,13.09
2023-01-18T22:51:23.257Z,13.08
2023-01-18T22:53:50.979Z,13.02
2023-01-18T22:56:25.177Z,13.15
2023-01-18T22:58:52.719Z,12.97
2023-01-18T23:01:25.594Z,12.87
2023-01-18T23:03:53.716Z,13.11
2023-01-18T23:06:21.187Z,13.31
2023-01-18T23:08:48.664Z,13.09
2023-01-18T23:11:26.913Z,13.38
2023-01-18T23:14:14.310Z,13.27
2023-01-18T23:17:00.903Z,13.56
2023-01-18T23:19:30.465Z,13.96
2023-01-18T23:21:58.249Z,13.65
2023-01-18T23:24:25.684Z,13.43
2023-01-18T23:26:53.227Z,13.46
2023-01-18T23:29:20.853Z,13.68
2023-01-18T23:31:48.082Z,13.51
2023-01-18T23:34:15.776Z,13.68
2023-01-18T23:36:42.973Z,14.01
2023-01-18T23:39:28.953Z,13.76
2023-01-18T23:42:14.803Z,13.66
2023-01-18T23:45:00.732Z,14.03
2023-01-18T23:47:46.751Z,14.07
2023-01-18T23:50:32.672Z,13.99
2023-01-18T23:53:19.599Z,13.89
2023-01-18T23:55:46.858Z,13.81
2023-01-18T23:58:14.152Z,13.94
